Time;durP1;ratioP1;P1;durP2;ratioP2;P2;SDS_P1;SDS_P2;PMS_P1;PMS_P2;Temp;Humidity;BMP_temperature;BMP_pressure;BME280_temperature;BME280_humidity;BME280_pressure;Samples;Min_cycle;Max_cycle;Signal;HPM_P1;HPM_P2
2020/12/19 00:00:14;;;;;;;18.98;9.75;;;;;;;5.37;100.00;101446.03;4953150;28;20065;-70
2020/12/19 00:02:40;;;;;;;20.33;9.82;;;;;;;5.36;100.00;101438.13;4952131;28;20035;-70
2020/12/19 00:05:06;;;;;;;17.17;9.48;;;;;;;5.35;100.00;101439.94;4953341;28;20036;-70
2020/12/19 00:07:32;;;;;;;17.42;9.50;;;;;;;5.34;100.00;101435.59;4952870;28;20039;-70
2020/12/19 00:09:59;;;;;;;18.60;9.25;;;;;;;5.36;100.00;101438.13;4953740;28;20039;-70
2020/12/19 00:12:24;;;;;;;17.75;9.07;;;;;;;5.31;100.00;101427.84;4953540;28;20559;-70
2020/12/19 00:14:50;;;;;;;20.45;9.75;;;;;;;5.33;100.00;101433.06;4953600;28;20159;-70
2020/12/19 00:17:16;;;;;;;19.02;10.00;;;;;;;5.30;100.00;101431.47;4950257;29;20236;-70
2020/12/19 00:19:42;;;;;;;22.05;9.98;;;;;;;5.32;100.00;101426.91;4952119;28;20039;-70
2020/12/19 00:22:07;;;;;;;19.00;8.95;;;;;;;5.29;100.00;101418.31;4953286;28;20369;-70
2020/12/19 00:24:33;;;;;;;21.08;10.00;;;;;;;5.23;100.00;101414.31;4953547;28;20396;-70
2020/12/19 00:26:59;;;;;;;18.30;9.63;;;;;;;5.15;100.00;101414.03;4952931;28;20035;-70
2020/12/19 00:29:24;;;;;;;22.08;10.13;;;;;;;5.10;100.00;101406.41;4953523;28;20429;-70
2020/12/19 00:31:50;;;;;;;19.52;10.18;;;;;;;5.15;100.00;101408.72;4953185;28;20034;-70
2020/12/19 00:34:18;;;;;;;21.08;10.07;;;;;;;5.14;100.00;101394.56;4953036;28;20034;-70
2020/12/19 00:36:44;;;;;;;21.15;9.95;;;;;;;5.21;100.00;101397.59;4960516;28;20053;-70
2020/12/19 00:39:10;;;;;;;20.20;9.40;;;;;;;5.17;100.00;101390.81;4972246;28;20034;-70
2020/12/19 00:41:36;;;;;;;18.98;9.73;;;;;;;5.18;100.00;101396.03;4963712;28;20027;-70
2020/12/19 00:44:01;;;;;;;18.20;8.65;;;;;;;5.11;100.00;101389.47;4952960;28;20538;-70
2020/12/19 00:46:27;;;;;;;20.50;9.30;;;;;;;5.07;100.00;101387.16;4952353;28;20035;-70
2020/12/19 00:48:53;;;;;;;19.90;10.43;;;;;;;5.14;100.00;101391.06;4952868;28;20031;-70
2020/12/19 00:51:22;;;;;;;21.63;10.85;;;;;;;5.09;100.00;101386.09;4952938;28;20089;-70
2020/12/19 00:53:49;;;;;;;17.98;9.07;;;;;;;5.02;100.00;101387.53;4952859;28;20416;-70
2020/12/19 00:56:17;;;;;;;20.85;9.98;;;;;;;5.03;100.00;101385.72;4943091;28;20035;-71
2020/12/19 00:58:44;;;;;;;22.88;10.45;;;;;;;5.03;100.00;101380.41;4965157;28;20110;-70
2020/12/19 01:01:10;;;;;;;20.40;10.60;;;;;;;5.05;100.00;101375.81;4951994;28;20278;-70
2020/12/19 01:03:35;;;;;;;22.15;9.30;;;;;;;4.94;100.00;101368.66;4950261;28;20415;-70
2020/12/19 01:06:01;;;;;;;21.90;10.60;;;;;;;4.89;100.00;101373.47;4952205;28;20031;-70
2020/12/19 01:08:26;;;;;;;23.17;11.15;;;;;;;4.86;100.00;101369.22;4950886;28;20126;-70
2020/12/19 01:10:52;;;;;;;23.25;10.23;;;;;;;4.82;100.00;101359.81;4952493;29;20038;-70
2020/12/19 01:13:18;;;;;;;22.80;10.63;;;;;;;4.87;100.00;101367.41;4952111;28;20027;-70
2020/12/19 01:15:43;;;;;;;19.67;9.80;;;;;;;4.88;100.00;101361.16;4952262;29;20035;-70
2020/12/19 01:18:09;;;;;;;22.02;9.65;;;;;;;4.93;100.00;101362.50;4949208;28;20388;-70
2020/12/19 01:20:34;;;;;;;18.63;10.10;;;;;;;4.91;100.00;101359.09;4952098;28;20035;-70
2020/12/19 01:23:00;;;;;;;21.95;10.20;;;;;;;4.83;100.00;101358.00;4951800;28;20122;-70
2020/12/19 01:25:26;;;;;;;22.38;10.23;;;;;;;4.81;100.00;101354.59;4952552;28;20062;-70
2020/12/19 01:27:51;;;;;;;21.02;10.90;;;;;;;4.80;100.00;101353.75;4951554;28;20038;-70
2020/12/19 01:30:17;;;;;;;23.35;11.30;;;;;;;4.75;100.00;101360.38;4952339;28;20039;-70
2020/12/19 01:32:42;;;;;;;21.50;10.63;;;;;;;4.72;100.00;101352.63;4949618;28;20034;-70
2020/12/19 01:35:08;;;;;;;27.73;11.18;;;;;;;4.82;100.00;101354.50;4951335;28;20042;-70
2020/12/19 01:37:33;;;;;;;20.40;10.30;;;;;;;4.91;100.00;101348.44;4951314;28;20054;-70
2020/12/19 01:39:59;;;;;;;25.13;10.70;;;;;;;4.90;100.00;101359.22;4952016;28;20039;-70
2020/12/19 01:42:24;;;;;;;21.00;9.48;;;;;;;4.89;100.00;101354.88;4951761;28;20504;-70
2020/12/19 01:44:50;;;;;;;25.50;11.10;;;;;;;4.90;100.00;101343.25;4952129;28;20027;-70
2020/12/19 01:47:20;;;;;;;24.90;11.27;;;;;;;4.95;100.00;101354.38;4946783;29;20143;-70
2020/12/19 01:49:46;;;;;;;24.58;12.13;;;;;;;5.01;100.00;101355.72;4942844;29;21033;-70
2020/12/19 01:52:11;;;;;;;20.77;10.10;;;;;;;4.94;100.00;101355.34;4966380;28;20041;-70
2020/12/19 01:54:38;;;;;;;25.73;11.38;;;;;;;5.05;100.00;101347.41;4952187;28;20119;-70
2020/12/19 01:57:04;;;;;;;23.02;10.40;;;;;;;5.04;100.00;101347.53;4937990;28;20503;-70
2020/12/19 01:59:32;;;;;;;25.13;11.25;;;;;;;5.15;100.00;101348.38;4951927;29;20082;-70
2020/12/19 02:02:05;;;;;;;23.20;10.55;;;;;;;5.19;100.00;101343.69;4951051;28;20101;-71
2020/12/19 02:04:31;;;;;;;23.75;10.40;;;;;;;5.22;100.00;101337.25;4966659;28;20114;-70
2020/12/19 02:07:00;;;;;;;20.63;11.18;;;;;;;5.31;100.00;101336.53;4951154;28;20031;-70
2020/12/19 02:09:28;;;;;;;21.10;10.20;;;;;;;5.32;100.00;101332.91;4950662;28;20377;-70
2020/12/19 02:11:54;;;;;;;20.77;10.20;;;;;;;5.29;100.00;101336.66;4947401;29;20031;-70
2020/12/19 02:14:19;;;;;;;21.23;10.43;;;;;;;5.42;100.00;101323.22;4943850;29;20400;-71
2020/12/19 02:16:53;;;;;;;23.33;11.00;;;;;;;5.39;100.00;101331.47;4938153;28;20031;-70
2020/12/19 02:19:20;;;;;;;22.20;10.00;;;;;;;5.39;100.00;101327.00;4951234;29;20080;-70
2020/12/19 02:21:45;;;;;;;22.38;10.07;;;;;;;5.36;100.00;101323.72;4949946;29;20027;-70
2020/12/19 02:24:11;;;;;;;19.83;9.45;;;;;;;5.35;100.00;101317.56;4951134;28;20054;-70
2020/12/19 02:26:37;;;;;;;28.60;11.25;;;;;;;5.40;100.00;101318.03;4951152;28;20050;-70
2020/12/19 02:29:04;;;;;;;25.63;11.38;;;;;;;5.37;100.00;101314.75;4949420;28;20399;-70
2020/12/19 02:31:29;;;;;;;18.08;9.50;;;;;;;5.31;100.00;101308.13;4950455;28;20098;-70
2020/12/19 02:33:55;;;;;;;23.38;9.98;;;;;;;5.45;100.00;101317.69;4948431;28;20476;-70
2020/12/19 02:36:23;;;;;;;20.70;10.63;;;;;;;5.43;100.00;101307.16;4949402;28;20522;-70
2020/12/19 02:38:48;;;;;;;19.35;9.60;;;;;;;5.40;100.00;101309.22;4945787;29;20089;-70
2020/12/19 02:41:15;;;;;;;20.23;10.38;;;;;;;5.32;100.00;101301.84;4951729;28;20130;-70
2020/12/19 02:43:52;;;;;;;23.33;10.65;;;;;;;5.31;100.00;101297.47;4949496;28;20492;-70
2020/12/19 02:46:19;;;;;;;23.23;10.57;;;;;;;5.33;100.00;101300.88;4949723;29;20047;-70
2020/12/19 02:48:44;;;;;;;21.58;10.25;;;;;;;5.32;100.00;101293.88;4951157;28;20086;-70
2020/12/19 02:51:10;;;;;;;21.80;10.50;;;;;;;5.35;100.00;101293.63;4951524;28;20035;-70
2020/12/19 02:53:36;;;;;;;22.20;10.48;;;;;;;5.39;100.00;101292.41;4965585;28;20511;-70
2020/12/19 02:56:02;;;;;;;21.20;10.90;;;;;;;5.47;100.00;101275.81;4942716;28;20028;-70
2020/12/19 02:58:28;;;;;;;19.50;9.77;;;;;;;5.49;100.00;101287.19;4959847;28;20385;-70
2020/12/19 03:01:02;;;;;;;24.48;11.23;;;;;;;5.62;100.00;101276.41;4951274;28;20043;-70
2020/12/19 03:03:28;;;;;;;24.52;10.82;;;;;;;5.72;100.00;101267.56;4950689;28;20070;-70
2020/12/19 03:05:56;;;;;;;27.52;10.80;;;;;;;5.65;100.00;101268.19;4951270;28;20071;-70
2020/12/19 03:08:22;;;;;;;20.05;9.85;;;;;;;5.60;100.00;101263.22;4945897;29;20070;-70
2020/12/19 03:10:48;;;;;;;19.58;9.82;;;;;;;5.72;100.00;101261.38;4941649;29;20051;-70
2020/12/19 03:13:16;;;;;;;22.95;10.10;;;;;;;5.85;100.00;101255.91;4949360;29;20065;-70
2020/12/19 03:15:42;;;;;;;17.08;9.50;;;;;;;5.81;100.00;101251.78;4951316;28;20467;-70
2020/12/19 03:18:08;;;;;;;18.25;9.70;;;;;;;5.81;100.00;101255.31;4950306;28;20035;-70
2020/12/19 03:20:34;;;;;;;21.17;8.98;;;;;;;5.87;100.00;101254.81;4950637;28;20035;-70
2020/12/19 03:22:59;;;;;;;19.63;9.13;;;;;;;5.80;100.00;101248.28;4949912;28;20556;-70
2020/12/19 03:25:26;;;;;;;20.20;9.65;;;;;;;5.75;100.00;101252.31;4950366;28;20043;-71
2020/12/19 03:27:53;;;;;;;19.88;9.50;;;;;;;5.84;100.00;101247.06;4950164;28;20027;-70
2020/12/19 03:30:19;;;;;;;20.70;9.30;;;;;;;5.92;100.00;101239.34;4950622;28;20043;-71
2020/12/19 03:32:44;;;;;;;22.45;9.55;;;;;;;5.96;100.00;101240.75;4950626;28;20027;-71
2020/12/19 03:35:10;;;;;;;21.35;8.70;;;;;;;5.92;100.00;101246.47;4949439;28;20099;-71
2020/12/19 03:37:36;;;;;;;20.20;9.20;;;;;;;5.87;100.00;101245.97;4947991;28;20031;-71
2020/12/19 03:40:03;;;;;;;15.20;7.95;;;;;;;5.86;100.00;101237.13;4949734;28;20081;-71
2020/12/19 03:42:28;;;;;;;21.33;8.88;;;;;;;5.85;100.00;101230.13;4950492;28;20028;-71
2020/12/19 03:44:55;;;;;;;19.10;9.18;;;;;;;5.88;100.00;101229.88;4952133;28;20042;-71
2020/12/19 03:47:20;;;;;;;16.73;8.65;;;;;;;5.82;100.00;101225.03;4953633;28;20503;-71
2020/12/19 03:49:46;;;;;;;19.05;9.23;;;;;;;5.88;100.00;101227.22;4953110;28;20031;-71
2020/12/19 03:52:11;;;;;;;19.50;9.23;;;;;;;5.86;100.00;101220.31;4952630;28;20500;-71
2020/12/19 03:54:37;;;;;;;18.35;8.73;;;;;;;5.91;100.00;101229.63;4952337;28;20035;-71
2020/12/19 03:57:03;;;;;;;18.58;8.80;;;;;;;6.05;100.00;101223.19;4939548;28;20090;-71
2020/12/19 03:59:28;;;;;;;18.50;8.88;;;;;;;6.01;100.00;101224.41;4954146;28;20034;-71
2020/12/19 04:01:54;;;;;;;20.63;8.52;;;;;;;5.99;100.00;101226.34;4953714;28;20456;-71
2020/12/19 04:04:19;;;;;;;18.23;8.57;;;;;;;5.94;100.00;101226.75;4968561;28;20031;-71
2020/12/19 04:06:45;;;;;;;18.73;9.18;;;;;;;5.93;100.00;101222.38;4953462;28;20497;-71
2020/12/19 04:09:10;;;;;;;19.08;9.75;;;;;;;5.94;100.00;101212.56;4953380;28;20146;-71
2020/12/19 04:11:36;;;;;;;19.77;8.98;;;;;;;6.00;100.00;101220.06;4953890;28;20046;-70
2020/12/19 04:14:02;;;;;;;21.80;10.07;;;;;;;5.96;100.00;101216.78;4953587;28;20031;-71
2020/12/19 04:16:27;;;;;;;19.40;9.80;;;;;;;5.96;100.00;101208.78;4952730;28;20035;-71
2020/12/19 04:18:53;;;;;;;18.33;8.70;;;;;;;5.95;100.00;101214.25;4952777;28;20035;-71
2020/12/19 04:21:18;;;;;;;19.48;9.88;;;;;;;5.85;100.00;101203.50;4953265;28;20035;-71
2020/12/19 04:23:44;;;;;;;22.63;11.07;;;;;;;5.81;100.00;101203.88;4953687;28;20051;-71
2020/12/19 04:26:09;;;;;;;19.92;10.10;;;;;;;5.84;100.00;101203.63;4952930;29;20039;-71
2020/12/19 04:28:35;;;;;;;23.55;9.98;;;;;;;5.81;100.00;101193.22;4953163;29;20138;-71
2020/12/19 04:31:00;;;;;;;22.58;9.70;;;;;;;5.78;100.00;101190.84;4953131;28;20575;-71
2020/12/19 04:33:26;;;;;;;21.48;10.45;;;;;;;5.79;100.00;101192.50;4952463;28;20031;-70
2020/12/19 04:35:51;;;;;;;24.73;10.07;;;;;;;5.81;100.00;101193.22;4952883;28;20038;-71
2020/12/19 04:38:17;;;;;;;22.23;10.43;;;;;;;5.71;100.00;101193.13;4952182;28;20035;-71
2020/12/19 04:40:43;;;;;;;25.52;10.43;;;;;;;5.76;100.00;101198.09;4966684;28;20046;-71
2020/12/19 04:43:13;;;;;;;24.70;11.18;;;;;;;5.80;100.00;101187.06;4952090;28;20043;-71
2020/12/19 04:45:39;;;;;;;27.65;12.18;;;;;;;5.77;100.00;101184.63;4951482;29;20042;-71
2020/12/19 04:48:06;;;;;;;23.15;10.75;;;;;;;5.75;100.00;101181.25;4951547;28;20070;-71
2020/12/19 04:50:31;;;;;;;25.88;11.88;;;;;;;5.74;100.00;101179.59;4951006;28;20037;-71
2020/12/19 04:52:57;;;;;;;25.35;11.30;;;;;;;5.79;100.00;101182.72;4951618;28;20467;-71
2020/12/19 04:55:23;;;;;;;24.98;11.95;;;;;;;5.82;100.00;101169.13;4950867;28;20039;-71
2020/12/19 04:57:53;;;;;;;27.48;12.88;;;;;;;5.80;100.00;101170.25;4952448;28;20078;-71
2020/12/19 05:00:18;;;;;;;24.80;11.77;;;;;;;5.85;100.00;101166.22;4951465;29;20031;-71
2020/12/19 05:02:44;;;;;;;26.92;12.02;;;;;;;5.92;100.00;101170.09;4953260;28;20037;-71
2020/12/19 05:05:09;;;;;;;28.25;12.05;;;;;;;5.96;100.00;101165.34;4951275;28;20046;-71
2020/12/19 05:07:35;;;;;;;27.70;12.68;;;;;;;5.99;100.00;101158.94;4950937;28;20101;-71
2020/12/19 05:10:01;;;;;;;29.58;13.02;;;;;;;6.04;100.00;101164.72;4951022;28;20078;-71
2020/12/19 05:12:27;;;;;;;31.65;11.85;;;;;;;5.99;100.00;101161.59;4952881;28;20440;-71
2020/12/19 05:14:53;;;;;;;29.67;13.48;;;;;;;6.03;100.00;101157.72;4951829;28;20527;-71
2020/12/19 05:17:18;;;;;;;30.63;13.20;;;;;;;6.00;100.00;101157.94;4952289;29;20118;-71
2020/12/19 05:19:44;;;;;;;34.10;14.18;;;;;;;5.95;100.00;101153.00;4952170;28;20123;-71
2020/12/19 05:22:15;;;;;;;30.02;13.43;;;;;;;6.01;100.00;101160.47;4951704;28;20050;-71
2020/12/19 05:24:44;;;;;;;31.50;13.95;;;;;;;6.02;100.00;101148.00;4951605;28;20035;-71
2020/12/19 05:27:09;;;;;;;32.20;14.50;;;;;;;6.01;100.00;101151.66;4951512;28;20559;-71
2020/12/19 05:29:36;;;;;;;32.33;14.43;;;;;;;5.97;100.00;101146.59;4952362;28;20063;-71
2020/12/19 05:32:02;;;;;;;33.67;13.40;;;;;;;5.99;100.00;101148.28;4952041;28;20070;-71
2020/12/19 05:34:28;;;;;;;32.30;14.35;;;;;;;6.00;100.00;101140.16;4952506;28;20038;-71
2020/12/19 05:36:55;;;;;;;33.70;14.25;;;;;;;5.95;100.00;101139.69;4951448;28;20035;-71
2020/12/19 05:39:21;;;;;;;35.88;14.75;;;;;;;5.95;100.00;101129.88;4952422;28;20499;-71
2020/12/19 05:41:48;;;;;;;37.67;14.98;;;;;;;5.92;100.00;101134.63;4952252;28;20042;-71
2020/12/19 05:44:18;;;;;;;32.08;14.20;;;;;;;5.89;100.00;101132.19;4952140;28;20031;-71
2020/12/19 05:46:44;;;;;;;34.63;15.18;;;;;;;5.85;100.00;101133.44;4951351;28;20027;-71
2020/12/19 05:49:11;;;;;;;35.38;15.68;;;;;;;5.88;100.00;101135.84;4952011;28;20391;-71
2020/12/19 05:51:39;;;;;;;39.75;15.75;;;;;;;5.82;100.00;101139.84;4951957;28;20451;-71
2020/12/19 05:54:08;;;;;;;32.85;14.80;;;;;;;5.78;100.00;101138.44;4951843;29;20031;-71
2020/12/19 05:56:39;;;;;;;35.70;16.02;;;;;;;5.79;100.00;101131.28;4951158;28;20414;-71
2020/12/19 05:59:10;;;;;;;39.90;16.60;;;;;;;5.81;100.00;101134.66;4952291;28;20046;-71
2020/12/19 06:01:39;;;;;;;45.13;15.52;;;;;;;5.71;100.00;101132.75;4950493;28;20097;-70
2020/12/19 06:04:07;;;;;;;37.45;15.40;;;;;;;5.68;100.00;101134.84;4951546;28;20412;-71
2020/12/19 06:06:37;;;;;;;41.38;17.23;;;;;;;5.71;100.00;101127.41;4950267;28;20476;-71
2020/12/19 06:09:03;;;;;;;45.97;15.77;;;;;;;5.78;100.00;101132.25;4950753;28;20488;-71
2020/12/19 06:11:34;;;;;;;39.05;16.63;;;;;;;5.78;100.00;101127.78;4951093;28;20118;-70
2020/12/19 06:14:06;;;;;;;38.95;16.38;;;;;;;5.86;100.00;101129.78;4951776;28;20038;-70
2020/12/19 06:16:37;;;;;;;42.35;17.17;;;;;;;5.90;100.00;101131.22;4949952;28;20166;-70
2020/12/19 06:19:13;;;;;;;42.20;17.23;;;;;;;5.92;100.00;101134.63;4950986;28;20087;-71
2020/12/19 06:21:40;;;;;;;41.63;16.75;;;;;;;6.00;100.00;101137.50;4950938;28;20031;-70
2020/12/19 06:24:07;;;;;;;38.85;16.52;;;;;;;5.97;100.00;101133.28;4951061;28;20039;-70
2020/12/19 06:26:35;;;;;;;35.70;15.45;;;;;;;6.05;100.00;101135.28;4950352;29;20714;-70
2020/12/19 06:29:01;;;;;;;39.45;16.00;;;;;;;6.09;100.00;101138.53;4950654;28;20164;-71
2020/12/19 06:31:26;;;;;;;33.97;14.80;;;;;;;6.17;100.00;101136.88;4950501;28;20035;-71
2020/12/19 06:33:53;;;;;;;37.38;15.60;;;;;;;6.15;100.00;101127.34;4950538;28;20051;-71
2020/12/19 06:36:23;;;;;;;33.53;14.73;;;;;;;6.21;100.00;101133.00;4964020;28;20769;-71
2020/12/19 06:38:52;;;;;;;33.33;13.93;;;;;;;6.25;100.00;101133.59;4945564;29;20082;-71
2020/12/19 06:41:45;;;;;;;35.50;14.25;;;;;;;6.28;100.00;101140.50;4941243;28;20062;-71
2020/12/19 06:44:14;;;;;;;31.52;13.32;;;;;;;6.39;100.00;101138.59;4935134;29;20038;-71
2020/12/19 06:46:41;;;;;;;33.78;14.30;;;;;;;6.45;100.00;101132.72;4947795;28;20489;-71
2020/12/19 06:49:31;;;;;;;32.03;14.52;;;;;;;6.53;100.00;101140.06;4948837;28;20118;-71
2020/12/19 06:52:20;;;;;;;34.78;13.20;;;;;;;6.61;100.00;101131.38;4948144;28;20055;-71
2020/12/19 06:54:49;;;;;;;31.80;12.98;;;;;;;6.69;100.00;101128.91;4949205;28;20035;-71
2020/12/19 06:57:22;;;;;;;29.10;12.85;;;;;;;6.62;100.00;101133.06;4935304;28;20035;-71
2020/12/19 06:59:47;;;;;;;27.15;12.65;;;;;;;6.62;100.00;101127.72;4948507;28;20035;-71
2020/12/19 07:02:18;;;;;;;28.10;13.10;;;;;;;6.55;100.00;101124.75;4923236;29;20395;-71
2020/12/19 07:04:44;;;;;;;30.52;13.43;;;;;;;6.58;100.00;101121.00;4947762;29;20039;-71
2020/12/19 07:07:13;;;;;;;36.28;12.60;;;;;;;6.61;100.00;101110.06;4948759;28;20038;-71
2020/12/19 07:09:39;;;;;;;30.08;12.20;;;;;;;6.73;100.00;101112.50;4948267;28;20031;-71
2020/12/19 07:12:25;;;;;;;21.10;10.35;;;;;;;6.72;100.00;101112.63;4935741;29;20507;-71
2020/12/19 07:14:51;;;;;;;24.17;11.15;;;;;;;6.75;100.00;101115.88;4948737;29;20089;-71
2020/12/19 07:17:18;;;;;;;24.80;11.63;;;;;;;6.86;100.00;101117.59;4948103;29;20628;-71
2020/12/19 07:19:46;;;;;;;23.65;11.57;;;;;;;6.90;100.00;101113.66;4949904;28;20090;-71
2020/12/19 07:22:12;;;;;;;21.42;10.48;;;;;;;7.00;100.00;101111.88;4951903;28;20089;-71
2020/12/19 07:24:38;;;;;;;19.85;10.40;;;;;;;7.13;100.00;101110.75;4952948;28;20399;-71
2020/12/19 07:27:04;;;;;;;21.95;10.00;;;;;;;7.16;100.00;101107.84;4951471;28;20035;-71
2020/12/19 07:29:30;;;;;;;20.25;9.82;;;;;;;7.21;100.00;101102.94;4967361;28;20122;-71
2020/12/19 07:31:59;;;;;;;20.70;10.32;;;;;;;7.24;100.00;101102.66;4951410;28;20488;-71
2020/12/19 07:34:26;;;;;;;23.10;10.20;;;;;;;7.32;100.00;101104.63;4952248;28;20031;-71
2020/12/19 07:36:53;;;;;;;16.77;9.05;;;;;;;7.33;100.00;101107.16;4950772;29;20054;-71
2020/12/19 07:39:20;;;;;;;19.45;9.73;;;;;;;7.33;100.00;101107.16;4951392;28;20479;-71
2020/12/19 07:42:00;;;;;;;19.95;8.65;;;;;;;7.43;100.00;101113.38;4949380;29;20031;-71
2020/12/19 07:44:27;;;;;;;20.75;8.55;;;;;;;7.38;100.00;101114.72;4950268;29;20304;-71
2020/12/19 07:46:55;;;;;;;24.85;9.00;;;;;;;7.39;100.00;101111.94;4950965;28;20038;-71
2020/12/19 07:49:33;;;;;;;16.95;8.13;;;;;;;7.59;100.00;101103.94;4951374;28;20027;-71
2020/12/19 07:52:07;;;;;;;18.10;8.57;;;;;;;7.57;100.00;101109.41;4964454;28;20039;-71
2020/12/19 07:54:33;;;;;;;16.30;8.02;;;;;;;7.58;100.00;101104.91;4951604;28;20369;-71
2020/12/19 07:57:00;;;;;;;15.60;8.07;;;;;;;7.58;100.00;101103.13;4949563;29;20393;-71
2020/12/19 07:59:26;;;;;;;17.70;8.95;;;;;;;7.65;100.00;101108.72;4966331;28;20427;-71
2020/12/19 08:01:53;;;;;;;21.98;8.98;;;;;;;7.65;100.00;101114.06;4948283;29;20690;-71
2020/12/19 08:04:19;;;;;;;13.48;8.02;;;;;;;7.72;100.00;101117.84;4949939;28;20055;-71
2020/12/19 08:06:45;;;;;;;18.25;8.75;;;;;;;7.66;100.00;101113.91;4950053;28;20493;-71
2020/12/19 08:09:16;;;;;;;17.23;7.65;;;;;;;7.81;100.00;101116.16;4949356;29;20032;-71
2020/12/19 08:11:43;;;;;;;14.57;7.22;;;;;;;7.85;100.00;101117.56;4948948;29;20047;-71
2020/12/19 08:14:10;;;;;;;16.00;7.50;;;;;;;7.86;100.00;101116.56;4950300;28;20023;-70
2020/12/19 08:16:36;;;;;;;16.23;7.85;;;;;;;7.88;100.00;101112.78;4950437;28;20114;-71
2020/12/19 08:19:02;;;;;;;13.52;7.30;;;;;;;7.96;100.00;101117.41;4949994;28;20039;-71
2020/12/19 08:21:28;;;;;;;13.35;7.05;;;;;;;8.02;100.00;101122.19;4949911;28;20054;-71
2020/12/19 08:23:55;;;;;;;14.07;7.68;;;;;;;8.00;100.00;101127.66;4950748;28;20500;-71
2020/12/19 08:26:21;;;;;;;18.48;7.85;;;;;;;8.02;100.00;101122.19;4949628;29;20504;-71
2020/12/19 08:29:00;;;;;;;13.93;7.57;;;;;;;7.99;100.00;101123.31;4949318;29;20093;-71
2020/12/19 08:31:26;;;;;;;15.50;7.93;;;;;;;8.07;100.00;101116.41;4949480;28;20038;-71
2020/12/19 08:33:52;;;;;;;16.52;7.45;;;;;;;8.05;100.00;101120.06;4948612;29;20035;-71
2020/12/19 08:36:18;;;;;;;14.48;7.15;;;;;;;8.07;100.00;101117.25;4949307;28;20035;-70
2020/12/19 08:38:44;;;;;;;14.45;7.60;;;;;;;8.09;100.00;101117.97;4950098;28;20214;-71
2020/12/19 08:41:18;;;;;;;15.48;7.55;;;;;;;8.16;100.00;101111.03;4949869;28;20114;-71
2020/12/19 08:43:44;;;;;;;12.63;7.10;;;;;;;8.23;100.00;101122.00;4950495;28;20046;-71
2020/12/19 08:46:13;;;;;;;13.70;6.80;;;;;;;8.40;100.00;101117.78;4950194;28;20039;-71
2020/12/19 08:48:39;;;;;;;13.50;6.55;;;;;;;8.51;100.00;101129.13;4950292;28;20058;-71
2020/12/19 08:51:14;;;;;;;11.35;6.28;;;;;;;8.56;100.00;101126.84;4950793;28;20500;-70
2020/12/19 08:53:40;;;;;;;10.60;5.75;;;;;;;8.64;100.00;101126.13;4950285;28;20037;-71
2020/12/19 08:56:14;;;;;;;9.73;5.70;;;;;;;8.74;100.00;101121.59;4949760;29;20031;-71
2020/12/19 08:58:42;;;;;;;10.97;5.83;;;;;;;8.80;100.00;101131.69;4949687;28;20035;-71
2020/12/19 09:01:14;;;;;;;16.27;5.82;;;;;;;8.93;100.00;101134.00;4950954;28;20478;-71
2020/12/19 09:03:41;;;;;;;9.82;5.90;;;;;;;8.97;100.00;101127.38;4964617;28;20515;-71
2020/12/19 09:06:08;;;;;;;11.10;5.82;;;;;;;9.08;100.00;101140.53;4950592;29;20027;-71
2020/12/19 09:08:37;;;;;;;9.77;5.30;;;;;;;9.13;100.00;101132.06;4950296;28;20027;-71
2020/12/19 09:11:05;;;;;;;12.07;5.55;;;;;;;9.17;100.00;101138.81;4949587;28;20070;-71
2020/12/19 09:13:31;;;;;;;9.10;4.85;;;;;;;9.23;100.00;101129.34;4949267;28;20086;-71
2020/12/19 09:16:07;;;;;;;8.95;4.28;;;;;;;9.23;100.00;101140.88;4950262;28;20301;-71
2020/12/19 09:18:35;;;;;;;7.90;4.60;;;;;;;9.29;100.00;101131.44;4949361;28;20035;-71
2020/12/19 09:21:03;;;;;;;9.18;4.50;;;;;;;9.29;100.00;101142.16;4948435;29;20031;-71
2020/12/19 09:23:29;;;;;;;10.73;4.38;;;;;;;9.29;100.00;101136.78;4949145;28;20519;-71
2020/12/19 09:25:57;;;;;;;8.35;4.30;;;;;;;9.35;100.00;101141.53;4949739;28;20034;-71
2020/12/19 09:28:23;;;;;;;9.65;3.97;;;;;;;9.34;100.00;101129.16;4949705;28;20035;-71
2020/12/19 09:30:51;;;;;;;11.02;4.53;;;;;;;9.38;100.00;101110.91;4949737;28;20074;-71
2020/12/19 09:33:17;;;;;;;11.43;4.72;;;;;;;9.39;100.00;101117.94;4949850;28;20507;-71
2020/12/19 09:35:43;;;;;;;10.82;4.43;;;;;;;9.44;100.00;101111.19;4949595;28;20067;-71
2020/12/19 09:38:09;;;;;;;7.40;3.65;;;;;;;9.48;100.00;101120.56;4949163;28;20562;-71
2020/12/19 09:40:35;;;;;;;9.55;3.95;;;;;;;9.53;99.14;101115.59;4948093;29;20078;-71
2020/12/19 09:43:00;;;;;;;8.02;3.42;;;;;;;9.57;99.41;101116.97;4948983;28;20037;-71
2020/12/19 09:45:26;;;;;;;6.30;3.17;;;;;;;9.66;98.42;101107.19;4949562;28;20043;-71
2020/12/19 09:47:55;;;;;;;7.93;3.35;;;;;;;9.76;97.57;101117.81;4964252;28;20027;-71
2020/12/19 09:50:22;;;;;;;5.53;3.55;;;;;;;9.84;97.63;101112.53;4948753;28;20028;-71
2020/12/19 09:52:48;;;;;;;7.85;3.22;;;;;;;9.96;96.73;101115.81;4948983;28;20031;-71
2020/12/19 09:55:14;;;;;;;12.23;3.42;;;;;;;10.03;96.79;101120.38;4947605;28;20570;-71
2020/12/19 09:57:39;;;;;;;8.00;3.40;;;;;;;10.09;96.90;101114.41;4938422;29;20118;-71
2020/12/19 10:00:07;;;;;;;8.55;3.47;;;;;;;10.20;95.58;101117.84;4949260;28;20351;-71
2020/12/19 10:02:32;;;;;;;7.57;3.60;;;;;;;10.27;94.93;101122.44;4947813;29;20046;-71
2020/12/19 10:04:58;;;;;;;8.75;3.85;;;;;;;10.34;94.39;101119.94;4948787;28;20035;-71
2020/12/19 10:07:24;;;;;;;9.63;4.13;;;;;;;10.33;93.50;101126.31;4948562;28;20035;-71
2020/12/19 10:09:50;;;;;;;9.45;4.57;;;;;;;10.30;94.46;101132.00;4949564;29;20038;-71
2020/12/19 10:12:15;;;;;;;9.02;3.13;;;;;;;10.40;93.42;101121.19;4949774;28;20404;-71
2020/12/19 10:14:41;;;;;;;6.22;3.67;;;;;;;10.37;93.26;101119.63;4949111;28;20037;-71
2020/12/19 10:17:07;;;;;;;6.78;3.25;;;;;;;10.34;94.07;101106.53;4949129;28;20039;-71
2020/12/19 10:19:32;;;;;;;8.48;3.63;;;;;;;10.37;93.92;101117.78;4949085;28;20574;-71
2020/12/19 10:21:58;;;;;;;6.15;2.90;;;;;;;10.43;93.26;101116.31;4948497;28;20039;-71
2020/12/19 10:24:25;;;;;;;6.80;3.35;;;;;;;10.43;92.68;101112.78;4948308;28;20043;-71
2020/12/19 10:26:51;;;;;;;7.18;3.10;;;;;;;10.51;92.76;101107.50;4949064;28;20031;-70
2020/12/19 10:29:16;;;;;;;5.15;2.88;;;;;;;10.54;92.24;101109.84;4949034;28;20515;-71
2020/12/19 10:31:42;;;;;;;6.60;3.00;;;;;;;10.59;92.75;101110.19;4949144;28;20031;-71
2020/12/19 10:34:07;;;;;;;6.72;3.20;;;;;;;10.63;92.50;101109.72;4948436;28;20031;-71
2020/12/19 10:36:33;;;;;;;9.30;2.90;;;;;;;10.71;91.57;101108.94;4948380;28;20038;-71
2020/12/19 10:38:59;;;;;;;8.13;3.00;;;;;;;10.74;92.36;101105.06;4948736;28;20097;-71
2020/12/19 10:41:25;;;;;;;5.20;2.70;;;;;;;10.77;91.55;101096.72;4948724;28;20038;-71
2020/12/19 10:43:51;;;;;;;6.57;2.75;;;;;;;10.79;91.03;101087.50;4949177;28;20037;-71
2020/12/19 10:46:22;;;;;;;6.20;2.67;;;;;;;10.86;90.75;101087.69;4948941;28;20035;-71
2020/12/19 10:48:47;;;;;;;6.00;3.20;;;;;;;10.92;90.18;101095.09;4949129;28;20035;-70
2020/12/19 10:51:13;;;;;;;5.28;2.63;;;;;;;10.99;91.02;101089.91;4948519;28;20571;-71
2020/12/19 10:53:42;;;;;;;5.72;2.90;;;;;;;11.12;89.69;101077.69;4948802;28;20034;-71
2020/12/19 10:56:15;;;;;;;7.35;2.80;;;;;;;11.22;88.89;101077.56;4953006;28;20031;-69
2020/12/19 10:58:41;;;;;;;6.32;2.60;;;;;;;11.20;88.62;101084.13;4953020;28;20031;-69
2020/12/19 11:01:06;;;;;;;6.60;3.28;;;;;;;11.15;89.99;101098.88;4951489;28;20575;-69
2020/12/19 11:03:32;;;;;;;4.88;2.42;;;;;;;11.23;88.95;101103.41;4934948;29;20684;-69
2020/12/19 11:05:58;;;;;;;7.00;2.90;;;;;;;11.23;88.49;101107.94;4952191;28;20035;-70
2020/12/19 11:08:24;;;;;;;6.50;3.05;;;;;;;11.30;87.20;101106.28;4952417;28;20526;-70
2020/12/19 11:10:49;;;;;;;4.13;2.55;;;;;;;11.24;87.14;101097.00;4966662;28;20143;-69
2020/12/19 11:13:15;;;;;;;8.43;3.00;;;;;;;11.28;86.93;101097.53;4952420;28;20028;-70